Time;durP1;ratioP1;P1;durP2;ratioP2;P2;SDS_P1;SDS_P2;PMS_P1;PMS_P2;Temp;Humidity;BMP_temperature;BMP_pressure;BME280_temperature;BME280_humidity;BME280_pressure;Samples;Min_cycle;Max_cycle;Signal;HPM_P1;HPM_P2
2023/01/23 00:01:37;;;;;;;;;;;;;;;;;;5081040;28;19924;-78
2023/01/23 00:04:03;;;;;;;;;;;;;;;;;;5083388;28;19912;-77
2023/01/23 00:06:29;;;;;;;;;;;;;;;;;;5082643;28;19959;-77
2023/01/23 00:08:55;;;;;;;;;;;;;;;;;;5082452;28;20429;-77
2023/01/23 00:11:21;;;;;;;;;;;;;;;;;;5082430;28;19963;-77
2023/01/23 00:13:47;;;;;;;;;;;;;;;;;;5083082;28;19980;-78
2023/01/23 00:16:13;;;;;;;;;;;;;;;;;;5083716;28;20557;-79
2023/01/23 00:18:39;;;;;;;;;;;;;;;;;;5082538;28;19979;-78
2023/01/23 00:21:05;;;;;;;;;;;;;;;;;;5083059;28;19909;-77
2023/01/23 00:23:31;;;;;;;;;;;;;;;;;;5082044;28;19919;-77
2023/01/23 00:25:56;;;;;;;;;;;;;;;;;;5083988;28;19908;-77
2023/01/23 00:28:22;;;;;;;;;;;;;;;;;;5082539;28;20387;-78
2023/01/23 00:30:48;;;;;;;;;;;;;;;;;;5082216;28;19912;-77
2023/01/23 00:33:14;;;;;;;;;;;;;;;;;;5082933;28;19989;-76
2023/01/23 00:35:40;;;;;;;;;;;;;;;;;;5083277;28;19909;-76
2023/01/23 00:38:06;;;;;;;;;;;;;;;;;;5083582;28;19916;-76
2023/01/23 00:40:32;;;;;;;;;;;;;;;;;;5082773;28;19919;-77
2023/01/23 00:42:58;;;;;;;;;;;;;;;;;;5082271;28;19985;-77
2023/01/23 00:45:24;;;;;;;;;;;;;;;;;;5080987;28;20288;-78
2023/01/23 00:47:50;;;;;;;;;;;;;;;;;;5081214;28;19915;-77
2023/01/23 00:50:15;;;;;;;;;;;;;;;;;;5082740;28;19908;-78
2023/01/23 00:52:41;;;;;;;;;;;;;;;;;;5082896;28;20415;-77
2023/01/23 00:55:07;;;;;;;;;;;;;;;;;;5080112;28;19931;-77
2023/01/23 00:57:33;;;;;;;;;;;;;;;;;;5081307;28;20394;-78
2023/01/23 00:59:59;;;;;;;;;;;;;;;;;;5084667;28;19917;-77
2023/01/23 01:02:25;;;;;;;;;;;;;;;;;;5082480;28;19935;-77
2023/01/23 01:04:51;;;;;;;;;;;;;;;;;;5081282;28;19909;-76
2023/01/23 01:07:17;;;;;;;;;;;;;;;;;;5080749;28;19931;-77
2023/01/23 01:09:43;;;;;;;;;;;;;;;;;;5081631;28;19912;-77
2023/01/23 01:12:09;;;;;;;;;;;;;;;;;;5082784;28;19908;-77
2023/01/23 01:14:35;;;;;;;;;;;;;;;;;;5081323;28;19909;-78
2023/01/23 01:17:01;;;;;;;;;;;;;;;;;;5080493;28;19956;-77
2023/01/23 01:19:27;;;;;;;;;;;;;;;;;;5082250;28;19909;-78
2023/01/23 01:21:53;;;;;;;;;;;;;;;;;;5081680;28;19916;-78
2023/01/23 01:24:18;;;;;;;;;;;;;;;;;;5081771;28;19909;-77
2023/01/23 01:26:44;;;;;;;;;;;;;;;;;;5078293;28;19904;-78
2023/01/23 01:29:10;;;;;;;;;;;;;;;;;;5080403;28;19909;-77
2023/01/23 01:31:36;;;;;;;;;;;;;;;;;;5082234;28;19911;-77
2023/01/23 01:34:02;;;;;;;;;;;;;;;;;;5082269;28;20503;-77
2023/01/23 01:36:28;;;;;;;;;;;;;;;;;;5078815;28;19904;-76
2023/01/23 01:38:54;;;;;;;;;;;;;;;;;;5080714;28;19924;-77
2023/01/23 01:41:20;;;;;;;;;;;;;;;;;;5082065;28;19909;-78
2023/01/23 01:43:46;;;;;;;;;;;;;;;;;;5082441;28;20155;-77
2023/01/23 01:46:12;;;;;;;;;;;;;;;;;;5081631;28;19915;-77
2023/01/23 01:48:38;;;;;;;;;;;;;;;;;;5082259;28;19908;-79
2023/01/23 01:51:04;;;;;;;;;;;;;;;;;;5081795;28;19908;-78
2023/01/23 01:53:30;;;;;;;;;;;;;;;;;;5082888;28;19935;-78
2023/01/23 01:55:55;;;;;;;;;;;;;;;;;;5082366;28;19908;-77
2023/01/23 01:58:21;;;;;;;;;;;;;;;;;;5081654;28;19917;-78
2023/01/23 02:00:47;;;;;;;;;;;;;;;;;;5081531;28;20342;-77
2023/01/23 02:03:13;;;;;;;;;;;;;;;;;;5082365;28;20002;-77
2023/01/23 02:05:39;;;;;;;;;;;;;;;;;;5083483;28;20027;-77
2023/01/23 02:08:05;;;;;;;;;;;;;;;;;;5079482;28;20365;-76
2023/01/23 02:10:33;;;;;;;;;;;;;;;;;;5082317;28;19962;-77
2023/01/23 02:12:59;;;;;;;;;;;;;;;;;;5082851;28;19909;-76
2023/01/23 02:15:25;;;;;;;;;;;;;;;;;;5082731;28;19908;-76
2023/01/23 02:17:51;;;;;;;;;;;;;;;;;;5081651;28;20292;-78
2023/01/23 02:20:17;;;;;;;;;;;;;;;;;;5083070;28;19908;-78
2023/01/23 02:22:44;;;;;;;;;;;;;;;;;;5082772;28;19939;-77
2023/01/23 02:25:10;;;;;;;;;;;;;;;;;;5081459;28;19908;-77
2023/01/23 02:27:36;;;;;;;;;;;;;;;;;;5084962;28;19954;-77
2023/01/23 02:30:02;;;;;;;;;;;;;;;;;;5086033;28;19995;-77
2023/01/23 02:32:28;;;;;;;;;;;;;;;;;;5086898;28;19908;-77
2023/01/23 02:34:54;;;;;;;;;;;;;;;;;;5086414;28;19909;-76
2023/01/23 02:37:20;;;;;;;;;;;;;;;;;;5080979;28;20419;-78
2023/01/23 02:39:46;;;;;;;;;;;;;;;;;;5083079;28;19943;-78
2023/01/23 02:42:12;;;;;;;;;;;;;;;;;;5084388;28;19912;-76
2023/01/23 02:44:38;;;;;;;;;;;;;;;;;;5085304;28;19909;-76
2023/01/23 02:47:04;;;;;;;;;;;;;;;;;;5085147;28;19909;-77
2023/01/23 02:49:30;;;;;;;;;;;;;;;;;;5084477;28;19951;-78
2023/01/23 02:51:56;;;;;;;;;;;;;;;;;;5084939;28;19909;-78
2023/01/23 02:54:22;;;;;;;;;;;;;;;;;;5085206;28;20335;-76
2023/01/23 02:56:48;;;;;;;;;;;;;;;;;;5084837;28;19958;-80
2023/01/23 03:01:59;;;;;;;;;;;;;;;;;;5086825;28;19934;-78
2023/01/23 03:04:25;;;;;;;;;;;;;;;;;;5085571;28;19916;-78
2023/01/23 03:06:50;;;;;;;;;;;;;;;;;;5085534;28;20387;-78
2023/01/23 03:09:16;;;;;;;;;;;;;;;;;;5084047;28;19910;-78
2023/01/23 03:11:42;;;;;;;;;;;;;;;;;;5082256;28;20391;-79
2023/01/23 03:14:08;;;;;;;;;;;;;;;;;;5084620;28;19909;-78
2023/01/23 03:16:34;;;;;;;;;;;;;;;;;;5085143;28;19915;-77
2023/01/23 03:19:04;;;;;;;;;;;;;;;;;;5083542;28;19958;-78
2023/01/23 03:21:29;;;;;;;;;;;;;;;;;;5086118;28;19965;-78
2023/01/23 03:23:56;;;;;;;;;;;;;;;;;;5084518;28;19912;-77
2023/01/23 03:26:22;;;;;;;;;;;;;;;;;;5085644;28;20003;-78
2023/01/23 03:31:33;;;;;;;;;;;;;;;;;;5086157;28;19935;-77
2023/01/23 03:33:58;;;;;;;;;;;;;;;;;;5084422;28;20372;-78
2023/01/23 03:36:24;;;;;;;;;;;;;;;;;;5084039;28;19909;-78
2023/01/23 03:41:37;;;;;;;;;;;;;;;;;;5083959;28;19931;-78
2023/01/23 03:44:03;;;;;;;;;;;;;;;;;;5083995;28;19912;-78
2023/01/23 03:46:28;;;;;;;;;;;;;;;;;;5083252;28;19988;-78
2023/01/23 03:48:54;;;;;;;;;;;;;;;;;;5083158;28;19912;-76
2023/01/23 03:51:20;;;;;;;;;;;;;;;;;;5083194;28;19930;-76
2023/01/23 03:53:46;;;;;;;;;;;;;;;;;;5083837;28;19908;-77
2023/01/23 03:56:12;;;;;;;;;;;;;;;;;;5083844;28;19958;-78
2023/01/23 03:58:38;;;;;;;;;;;;;;;;;;5082890;28;20258;-78
2023/01/23 04:01:04;;;;;;;;;;;;;;;;;;5084065;28;19916;-78
2023/01/23 04:03:30;;;;;;;;;;;;;;;;;;5081040;28;19916;-79
2023/01/23 04:05:56;;;;;;;;;;;;;;;;;;5083337;28;19930;-77
2023/01/23 04:08:22;;;;;;;;;;;;;;;;;;5083256;28;19912;-78
2023/01/23 04:10:48;;;;;;;;;;;;;;;;;;5082721;28;19912;-80
2023/01/23 04:13:14;;;;;;;;;;;;;;;;;;5082552;28;19909;-77
2023/01/23 04:15:40;;;;;;;;;;;;;;;;;;5081854;28;19930;-77
2023/01/23 04:18:05;;;;;;;;;;;;;;;;;;5081940;28;19908;-78
2023/01/23 04:20:31;;;;;;;;;;;;;;;;;;5083145;28;19912;-77
2023/01/23 04:22:57;;;;;;;;;;;;;;;;;;5082539;28;19913;-78
2023/01/23 04:25:23;;;;;;;;;;;;;;;;;;5082497;28;19935;-77
2023/01/23 04:27:49;;;;;;;;;;;;;;;;;;5082512;28;19930;-79
2023/01/23 04:30:15;;;;;;;;;;;;;;;;;;5084106;28;19908;-78
2023/01/23 04:32:41;;;;;;;;;;;;;;;;;;5082443;28;19908;-78
2023/01/23 04:35:07;;;;;;;;;;;;;;;;;;5083026;28;19916;-77
2023/01/23 04:37:33;;;;;;;;;;;;;;;;;;5083783;28;19912;-77
2023/01/23 04:39:58;;;;;;;;;;;;;;;;;;5082265;28;19909;-78
2023/01/23 04:42:24;;;;;;;;;;;;;;;;;;5081146;28;20330;-77
2023/01/23 04:44:50;;;;;;;;;;;;;;;;;;5082274;28;19908;-77
2023/01/23 04:47:16;;;;;;;;;;;;;;;;;;5082723;28;20296;-77
2023/01/23 04:49:42;;;;;;;;;;;;;;;;;;5080481;28;19915;-77
2023/01/23 04:52:08;;;;;;;;;;;;;;;;;;5081646;28;19909;-77
2023/01/23 04:54:34;;;;;;;;;;;;;;;;;;5081039;28;19916;-77
2023/01/23 04:57:00;;;;;;;;;;;;;;;;;;5080969;28;19969;-78
2023/01/23 04:59:26;;;;;;;;;;;;;;;;;;5081186;28;19916;-79
2023/01/23 05:01:52;;;;;;;;;;;;;;;;;;5080949;28;20391;-78
2023/01/23 05:04:17;;;;;;;;;;;;;;;;;;5080248;28;19908;-78
2023/01/23 05:06:43;;;;;;;;;;;;;;;;;;5079956;28;19908;-77
2023/01/23 05:09:09;;;;;;;;;;;;;;;;;;5081021;28;19908;-79
2023/01/23 05:11:35;;;;;;;;;;;;;;;;;;5082262;28;19912;-80
2023/01/23 05:14:01;;;;;;;;;;;;;;;;;;5080297;28;19958;-79
2023/01/23 05:16:27;;;;;;;;;;;;;;;;;;5077425;28;20250;-80
2023/01/23 05:18:53;;;;;;;;;;;;;;;;;;5075976;28;19919;-79
2023/01/23 05:21:19;;;;;;;;;;;;;;;;;;5078634;28;19908;-81
2023/01/23 05:23:45;;;;;;;;;;;;;;;;;;5078206;28;19919;-80
2023/01/23 05:26:11;;;;;;;;;;;;;;;;;;5078768;28;19909;-79
2023/01/23 05:28:36;;;;;;;;;;;;;;;;;;5076783;28;20375;-80
2023/01/23 05:31:02;;;;;;;;;;;;;;;;;;5077943;28;19908;-79
2023/01/23 05:33:28;;;;;;;;;;;;;;;;;;5078665;28;19909;-81
2023/01/23 05:35:54;;;;;;;;;;;;;;;;;;5078222;28;19934;-79
2023/01/23 05:38:20;;;;;;;;;;;;;;;;;;5079125;28;19952;-79
2023/01/23 05:40:46;;;;;;;;;;;;;;;;;;5087365;28;19943;-77
2023/01/23 05:43:12;;;;;;;;;;;;;;;;;;5081856;28;19913;-79
2023/01/23 05:45:38;;;;;;;;;;;;;;;;;;5081388;28;19914;-77
2023/01/23 05:48:04;;;;;;;;;;;;;;;;;;5080533;28;19908;-79
2023/01/23 05:50:30;;;;;;;;;;;;;;;;;;5082358;28;19915;-78
2023/01/23 05:52:55;;;;;;;;;;;;;;;;;;5082310;28;20353;-76
2023/01/23 05:55:21;;;;;;;;;;;;;;;;;;5081529;28;20003;-77
2023/01/23 05:57:47;;;;;;;;;;;;;;;;;;5080540;28;20010;-77
2023/01/23 06:00:13;;;;;;;;;;;;;;;;;;5080012;28;19923;-78
2023/01/23 06:02:39;;;;;;;;;;;;;;;;;;5079142;28;19912;-76
2023/01/23 06:05:05;;;;;;;;;;;;;;;;;;5081949;28;19909;-77
2023/01/23 06:07:31;;;;;;;;;;;;;;;;;;5080763;28;19930;-78
2023/01/23 06:09:57;;;;;;;;;;;;;;;;;;5080494;28;19908;-81
2023/01/23 06:12:23;;;;;;;;;;;;;;;;;;5080380;28;19999;-80
2023/01/23 06:14:49;;;;;;;;;;;;;;;;;;5082189;28;19961;-77
2023/01/23 06:17:14;;;;;;;;;;;;;;;;;;5081636;28;19908;-78
2023/01/23 06:19:41;;;;;;;;;;;;;;;;;;5080778;28;19912;-77
2023/01/23 06:22:07;;;;;;;;;;;;;;;;;;5079627;28;19912;-79
2023/01/23 06:24:33;;;;;;;;;;;;;;;;;;5081938;28;19912;-77
2023/01/23 06:26:58;;;;;;;;;;;;;;;;;;5080327;28;19953;-79
2023/01/23 06:29:24;;;;;;;;;;;;;;;;;;5078999;28;19909;-77
2023/01/23 06:31:50;;;;;;;;;;;;;;;;;;5081317;28;20474;-77
2023/01/23 06:34:16;;;;;;;;;;;;;;;;;;5080438;28;19913;-77
2023/01/23 06:36:42;;;;;;;;;;;;;;;;;;5078663;28;19931;-77
2023/01/23 06:39:08;;;;;;;;;;;;;;;;;;5080888;28;20394;-77
2023/01/23 06:41:34;;;;;;;;;;;;;;;;;;5078472;28;19908;-77
2023/01/23 06:44:00;;;;;;;;;;;;;;;;;;5075483;28;19915;-77
2023/01/23 06:46:26;;;;;;;;;;;;;;;;;;5071091;28;19948;-75
2023/01/23 06:48:52;;;;;;;;;;;;;;;;;;5071506;28;19999;-75
2023/01/23 06:51:18;;;;;;;;;;;;;;;;;;5072271;28;19995;-75
2023/01/23 06:53:44;;;;;;;;;;;;;;;;;;5072462;28;19952;-75
2023/01/23 06:56:10;;;;;;;;;;;;;;;;;;5071859;28;20368;-75
2023/01/23 06:58:37;;;;;;;;;;;;;;;;;;5070573;28;20342;-75
2023/01/23 07:01:03;;;;;;;;;;;;;;;;;;5071148;28;19912;-75
2023/01/23 07:03:29;;;;;;;;;;;;;;;;;;5071549;28;19916;-75
2023/01/23 07:05:55;;;;;;;;;;;;;;;;;;5072838;28;20267;-76
2023/01/23 07:08:21;;;;;;;;;;;;;;;;;;5072306;28;19909;-76
2023/01/23 07:10:47;;;;;;;;;;;;;;;;;;5071570;28;19960;-76
2023/01/23 07:13:12;;;;;;;;;;;;;;;;;;5075359;28;19916;-75
2023/01/23 07:15:38;;;;;;;;;;;;;;;;;;5074376;28;19908;-76
2023/01/23 07:18:04;;;;;;;;;;;;;;;;;;5074311;28;20676;-76
2023/01/23 07:20:30;;;;;;;;;;;;;;;;;;5074652;28;19909;-76
2023/01/23 07:22:56;;;;;;;;;;;;;;;;;;5075757;28;19919;-76
2023/01/23 07:25:22;;;;;;;;;;;;;;;;;;5075293;28;19908;-76
2023/01/23 07:27:48;;;;;;;;;;;;;;;;;;5078018;28;19916;-75
2023/01/23 07:30:14;;;;;;;;;;;;;;;;;;5094572;28;19953;-76
2023/01/23 07:32:40;;;;;;;;;;;;;;;;;;5096094;28;19908;-76
2023/01/23 07:35:06;;;;;;;;;;;;;;;;;;5096635;28;20319;-75
2023/01/23 07:37:31;;;;;;;;;;;;;;;;;;5094179;28;19908;-75
2023/01/23 07:39:57;;;;;;;;;;;;;;;;;;5095845;28;19908;-75
2023/01/23 07:42:23;;;;;;;;;;;;;;;;;;5092660;28;20395;-76
2023/01/23 07:44:49;;;;;;;;;;;;;;;;;;5095148;28;20542;-76
2023/01/23 07:47:15;;;;;;;;;;;;;;;;;;5095161;28;19908;-76
2023/01/23 07:49:41;;;;;;;;;;;;;;;;;;5094043;28;19908;-77
2023/01/23 07:52:07;;;;;;;;;;;;;;;;;;5095441;28;20006;-75
2023/01/23 07:54:33;;;;;;;;;;;;;;;;;;5094383;28;19918;-76
2023/01/23 07:56:59;;;;;;;;;;;;;;;;;;5093996;28;20375;-76
2023/01/23 07:59:25;;;;;;;;;;;;;;;;;;5093532;28;19916;-75
2023/01/23 08:01:51;;;;;;;;;;;;;;;;;;5098736;28;19915;-76
2023/01/23 08:04:17;;;;;;;;;;;;;;;;;;5095262;28;19945;-76
2023/01/23 08:06:43;;;;;;;;;;;;;;;;;;5095143;28;19919;-76
2023/01/23 08:09:09;;;;;;;;;;;;;;;;;;5093127;28;19908;-76
2023/01/23 08:11:35;;;;;;;;;;;;;;;;;;5095117;28;19908;-76
2023/01/23 08:14:00;;;;;;;;;;;;;;;;;;5094031;28;19935;-76
2023/01/23 08:16:26;;;;;;;;;;;;;;;;;;5093252;28;19959;-74
2023/01/23 08:18:52;;;;;;;;;;;;;;;;;;5092906;28;19923;-75
2023/01/23 08:21:18;;;;;;;;;;;;;;;;;;5095326;28;20627;-77
2023/01/23 08:23:45;;;;;;;;;;;;;;;;;;5093739;28;20221;-76
2023/01/23 08:26:12;;;;;;;;;;;;;;;;;;5092480;28;19938;-75
2023/01/23 08:28:38;;;;;;;;;;;;;;;;;;5093057;28;19908;-76
2023/01/23 08:31:04;;;;;;;;;;;;;;;;;;5088930;28;19908;-76
2023/01/23 08:33:31;;;;;;;;;;;;;;;;;;5093231;28;19915;-76
2023/01/23 08:35:57;;;;;;;;;;;;;;;;;;5094784;28;19991;-75
2023/01/23 08:38:23;;;;;;;;;;;;;;;;;;5093247;28;19970;-76
2023/01/23 08:40:49;;;;;;;;;;;;;;;;;;5093474;28;19908;-75
2023/01/23 08:43:15;;;;;;;;;;;;;;;;;;5094213;28;19919;-77
2023/01/23 08:45:41;;;;;;;;;;;;;;;;;;5092625;28;20425;-76
2023/01/23 08:48:07;;;;;;;;;;;;;;;;;;5093676;28;19909;-76
2023/01/23 08:50:33;;;;;;;;;;;;;;;;;;5093502;28;19965;-78
2023/01/23 08:52:59;;;;;;;;;;;;;;;;;;5094451;28;19908;-76
2023/01/23 08:55:27;;;;;;;;;;;;;;;;;;5094349;28;19927;-76
2023/01/23 08:57:53;;;;;;;;;;;;;;;;;;5094724;28;20096;-78
2023/01/23 09:00:19;;;;;;;;;;;;;;;;;;5094508;28;20006;-76
2023/01/23 09:02:44;;;;;;;;;;;;;;;;;;5094059;28;19970;-76
2023/01/23 09:05:10;;;;;;;;;;;;;;;;;;5094481;28;19933;-78
2023/01/23 09:07:36;;;;;;;;;;;;;;;;;;5095314;28;19908;-77
2023/01/23 09:10:02;;;;;;;;;;;;;;;;;;5095577;28;19915;-76
2023/01/23 09:12:28;;;;;;;;;;;;;;;;;;5094158;28;19908;-77
2023/01/23 09:14:54;;;;;;;;;;;;;;;;;;5094793;28;19935;-78
2023/01/23 09:17:20;;;;;;;;;;;;;;;;;;5097115;28;19909;-78
2023/01/23 09:19:46;;;;;;;;;;;;;;;;;;5096920;28;19919;-77
2023/01/23 09:22:12;;;;;;;;;;;;;;;;;;5095800;28;19916;-77
2023/01/23 09:24:38;;;;;;;;;;;;;;;;;;5095694;28;20426;-77
2023/01/23 09:27:04;;;;;;;;;;;;;;;;;;5095084;28;19908;-78
2023/01/23 09:29:30;;;;;;;;;;;;;;;;;;5093185;28;19935;-77
2023/01/23 09:31:57;;;;;;;;;;;;;;;;;;5098247;28;19968;-77
2023/01/23 09:34:23;;;;;;;;;;;;;;;;;;5099174;28;19919;-81
2023/01/23 09:36:49;;;;;;;;;;;;;;;;;;5105611;28;19908;-79
2023/01/23 09:39:15;;;;;;;;;;;;;;;;;;5102995;28;19974;-77
2023/01/23 09:41:41;;;;;;;;;;;;;;;;;;5097803;28;19991;-78
2023/01/23 09:44:08;;;;;;;;;;;;;;;;;;5098621;28;19914;-77
2023/01/23 09:46:34;;;;;;;;;;;;;;;;;;5101150;28;19915;-76
2023/01/23 09:48:59;;;;;;;;;;;;;;;;;;5100449;28;19995;-77
2023/01/23 09:51:26;;;;;;;;;;;;;;;;;;5098188;28;19921;-77
2023/01/23 09:53:52;;;;;;;;;;;;;;;;;;5099387;28;19908;-78
2023/01/23 09:56:19;;;;;;;;;;;;;;;;;;5094478;28;19962;-78
2023/01/23 09:58:45;;;;;;;;;;;;;;;;;;5095573;28;19923;-78
2023/01/23 10:01:12;;;;;;;;;;;;;;;;;;5097992;28;19908;-77
2023/01/23 10:03:37;;;;;;;;;;;;;;;;;;5094848;28;20005;-77
2023/01/23 10:06:03;;;;;;;;;;;;;;;;;;5094241;28;19919;-78
2023/01/23 10:08:29;;;;;;;;;;;;;;;;;;5095328;28;19973;-77
2023/01/23 10:10:55;;;;;;;;;;;;;;;;;;5095006;28;19908;-77
2023/01/23 10:13:21;;;;;;;;;;;;;;;;;;5096524;28;19916;-77
2023/01/23 10:15:47;;;;;;;;;;;;;;;;;;5096421;28;19908;-77
2023/01/23 10:18:13;;;;;;;;;;;;;;;;;;5095964;28;19988;-79
2023/01/23 10:20:39;;;;;;;;;;;;;;;;;;5096295;28;19908;-77
2023/01/23 10:23:05;;;;;;;;;;;;;;;;;;5097085;28;19918;-77
2023/01/23 10:25:34;;;;;;;;;;;;;;;;;;5096926;28;19951;-78
2023/01/23 10:28:00;;;;;;;;;;;;;;;;;;5096721;28;19915;-78
2023/01/23 10:30:26;;;;;;;;;;;;;;;;;;5096026;28;19908;-78
2023/01/23 10:32:52;;;;;;;;;;;;;;;;;;5096021;28;19915;-78
2023/01/23 10:35:18;;;;;;;;;;;;;;;;;;5097687;28;20275;-78
2023/01/23 10:37:44;;;;;;;;;;;;;;;;;;5095795;28;19923;-78
2023/01/23 10:40:10;;;;;;;;;;;;;;;;;;5083141;28;20287;-77
2023/01/23 10:42:35;;;;;;;;;;;;;;;;;;5077231;28;19919;-77
2023/01/23 10:45:01;;;;;;;;;;;;;;;;;;5078178;28;19909;-77
2023/01/23 10:47:27;;;;;;;;;;;;;;;;;;5077393;28;19909;-77
2023/01/23 10:49:53;;;;;;;;;;;;;;;;;;5080271;28;19934;-77
2023/01/23 10:52:19;;;;;;;;;;;;;;;;;;5079827;28;19909;-78
2023/01/23 10:54:45;;;;;;;;;;;;;;;;;;5081013;28;20032;-78
2023/01/23 10:57:11;;;;;;;;;;;;;;;;;;5080196;28;19958;-78
2023/01/23 10:59:37;;;;;;;;;;;;;;;;;;5079066;28;19916;-76
2023/01/23 11:02:04;;;;;;;;;;;;;;;;;;5079779;28;20288;-77
2023/01/23 11:04:30;;;;;;;;;;;;;;;;;;5079181;28;19909;-77
2023/01/23 11:06:56;;;;;;;;;;;;;;;;;;5076602;28;19931;-78
2023/01/23 11:09:22;;;;;;;;;;;;;;;;;;5077811;28;19961;-76
2023/01/23 11:11:48;;;;;;;;;;;;;;;;;;5078525;28;20380;-77
2023/01/23 11:14:15;;;;;;;;;;;;;;;;;;5077993;28;19916;-77
2023/01/23 11:16:41;;;;;;;;;;;;;;;;;;5075488;28;19916;-77
2023/01/23 11:19:07;;;;;;;;;;;;;;;;;;5076541;28;19909;-76
2023/01/23 11:21:33;;;;;;;;;;;;;;;;;;5076918;28;19981;-77
2023/01/23 11:23:59;;;;;;;;;;;;;;;;;;5075109;28;20380;-76
2023/01/23 11:26:25;;;;;;;;;;;;;;;;;;5075436;28;19909;-76
2023/01/23 11:28:51;;;;;;;;;;;;;;;;;;5076604;28;19916;-76
2023/01/23 11:31:16;;;;;;;;;;;;;;;;;;5076205;28;20337;-76
2023/01/23 11:33:43;;;;;;;;;;;;;;;;;;5075915;28;19909;-77
2023/01/23 11:36:09;;;;;;;;;;;;;;;;;;5077311;28;19938;-77
2023/01/23 11:38:34;;;;;;;;;;;;;;;;;;5078544;28;20578;-77
2023/01/23 11:41:00;;;;;;;;;;;;;;;;;;5085082;28;19965;-79
2023/01/23 11:43:26;;;;;;;;;;;;;;;;;;5098771;28;19912;-77
2023/01/23 11:45:52;;;;;;;;;;;;;;;;;;5099597;28;20361;-76
2023/01/23 11:48:18;;;;;;;;;;;;;;;;;;5097786;28;19909;-77
2023/01/23 11:50:44;;;;;;;;;;;;;;;;;;5099196;28;19908;-77
2023/01/23 11:53:10;;;;;;;;;;;;;;;;;;5096170;28;19930;-77
2023/01/23 11:55:37;;;;;;;;;;;;;;;;;;5096479;28;19908;-76
2023/01/23 11:58:03;;;;;;;;;;;;;;;;;;5095697;28;19912;-77
2023/01/23 12:00:29;;;;;;;;;;;;;;;;;;5097785;28;19919;-77
2023/01/23 12:02:56;;;;;;;;;;;;;;;;;;5094907;28;20292;-77
2023/01/23 12:05:23;;;;;;;;;;;;;;;;;;5093967;28;19930;-76
2023/01/23 12:07:49;;;;;;;;;;;;;;;;;;5093685;28;19915;-77
2023/01/23 12:10:15;;;;;;;;;;;;;;;;;;5094526;28;19908;-77
2023/01/23 12:12:41;;;;;;;;;;;;;;;;;;5095529;28;19908;-76
2023/01/23 12:15:07;;;;;;;;;;;;;;;;;;5095215;28;19908;-77
2023/01/23 12:17:33;;;;;;;;;;;;;;;;;;5095083;28;19908;-76
2023/01/23 12:20:00;;;;;;;;;;;;;;;;;;5096095;28;19931;-77
2023/01/23 12:22:26;;;;;;;;;;;;;;;;;;5095862;28;20330;-76
2023/01/23 12:24:52;;;;;;;;;;;;;;;;;;5095420;28;20006;-76
2023/01/23 12:27:18;;;;;;;;;;;;;;;;;;5093997;28;19914;-76
2023/01/23 12:29:44;;;;;;;;;;;;;;;;;;5095381;28;19937;-77
2023/01/23 12:32:10;;;;;;;;;;;;;;;;;;5095073;28;19908;-76
2023/01/23 12:34:36;;;;;;;;;;;;;;;;;;5095099;28;19915;-77
2023/01/23 12:37:02;;;;;;;;;;;;;;;;;;5094138;28;20368;-77
2023/01/23 12:39:27;;;;;;;;;;;;;;;;;;5095020;28;20002;-77
2023/01/23 12:41:57;;;;;;;;;;;;;;;;;;5093844;28;19912;-75
2023/01/23 12:44:22;;;;;;;;;;;;;;;;;;5093093;28;19912;-76
2023/01/23 12:46:49;;;;;;;;;;;;;;;;;;5094717;28;19908;-76
2023/01/23 12:49:15;;;;;;;;;;;;;;;;;;5093101;28;19908;-76
2023/01/23 12:51:41;;;;;;;;;;;;;;;;;;5094600;28;19915;-76
2023/01/23 12:54:07;;;;;;;;;;;;;;;;;;5092277;28;19908;-77
2023/01/23 12:56:33;;;;;;;;;;;;;;;;;;5094449;28;19915;-77
2023/01/23 12:58:59;;;;;;;;;;;;;;;;;;5093174;28;19916;-77
2023/01/23 13:01:25;;;;;;;;;;;;;;;;;;5095088;28;19908;-77
2023/01/23 13:03:50;;;;;;;;;;;;;;;;;;5094545;28;19919;-77
2023/01/23 13:06:18;;;;;;;;;;;;;;;;;;5092382;28;20363;-76
2023/01/23 13:08:44;;;;;;;;;;;;;;;;;;5093393;28;19912;-77
2023/01/23 13:13:55;;;;;;;;;;;;;;;;;;5094653;28;20296;-76
2023/01/23 13:16:21;;;;;;;;;;;;;;;;;;5093917;28;19904;-76
2023/01/23 13:25:08;;;;;;;;;;;;;;;;;;5094887;28;20010;-77
2023/01/23 13:27:02;;;;;;;;;;;;;;;;;;5094521;28;19957;-77
2023/01/23 13:29:28;;;;;;;;;;;;;;;;;;5094163;28;19908;-77
2023/01/23 13:31:56;;;;;;;;;;;;;;;;;;5094926;28;19912;-77
2023/01/23 13:34:22;;;;;;;;;;;;;;;;;;5094567;28;19908;-75
2023/01/23 13:36:47;;;;;;;;;;;;;;;;;;5094180;28;19935;-76
2023/01/23 13:39:13;;;;;;;;;;;;;;;;;;5089546;28;20337;-77
2023/01/23 13:41:39;;;;;;;;;;;;;;;;;;5095344;28;19908;-77
2023/01/23 13:44:05;;;;;;;;;;;;;;;;;;5094539;28;19912;-78
2023/01/23 13:46:31;;;;;;;;;;;;;;;;;;5095225;28;19936;-76
2023/01/23 13:51:42;;;;;;;;;;;;;;;;;;5095215;28;20474;-75
2023/01/23 13:56:52;;;;;;;;;;;;;;;;;;5092714;28;19923;-75
2023/01/23 13:59:18;;;;;;;;;;;;;;;;;;5092373;28;19916;-76
2023/01/23 14:07:41;;;;;;;;;;;;;;;;;;5092231;28;20007;-76
2023/01/23 14:10:07;;;;;;;;;;;;;;;;;;5091483;28;19961;-76
2023/01/23 14:12:34;;;;;;;;;;;;;;;;;;5091600;28;19916;-76
2023/01/23 14:17:45;;;;;;;;;;;;;;;;;;5092487;28;19914;-76
2023/01/23 14:20:11;;;;;;;;;;;;;;;;;;5093113;28;19908;-76
2023/01/23 14:22:37;;;;;;;;;;;;;;;;;;5096770;28;20421;-76
2023/01/23 14:25:03;;;;;;;;;;;;;;;;;;5096933;28;19912;-76
2023/01/23 14:27:29;;;;;;;;;;;;;;;;;;5096546;28;19927;-76
2023/01/23 14:29:55;;;;;;;;;;;;;;;;;;5095789;28;20291;-76
2023/01/23 14:32:22;;;;;;;;;;;;;;;;;;5096805;28;19908;-76
2023/01/23 14:34:48;;;;;;;;;;;;;;;;;;5097001;28;20016;-76
2023/01/23 14:37:14;;;;;;;;;;;;;;;;;;5096377;28;19987;-74
2023/01/23 14:39:41;;;;;;;;;;;;;;;;;;5097160;28;19905;-76
2023/01/23 14:42:07;;;;;;;;;;;;;;;;;;5096641;28;19908;-76
2023/01/23 14:44:32;;;;;;;;;;;;;;;;;;5094644;28;20260;-77
2023/01/23 14:46:58;;;;;;;;;;;;;;;;;;5096883;28;19915;-77
2023/01/23 14:49:24;;;;;;;;;;;;;;;;;;5096549;28;19909;-76
2023/01/23 14:51:50;;;;;;;;;;;;;;;;;;5095652;28;19915;-76
2023/01/23 14:54:16;;;;;;;;;;;;;;;;;;5095306;28;20318;-76
2023/01/23 14:56:42;;;;;;;;;;;;;;;;;;5096257;28;19908;-76
2023/01/23 14:59:08;;;;;;;;;;;;;;;;;;5096569;28;19965;-75
2023/01/23 15:01:34;;;;;;;;;;;;;;;;;;5096452;28;19912;-76
2023/01/23 15:04:00;;;;;;;;;;;;;;;;;;5096392;28;19919;-75
2023/01/23 15:06:26;;;;;;;;;;;;;;;;;;5096025;28;20364;-76
2023/01/23 15:08:51;;;;;;;;;;;;;;;;;;5095869;28;19934;-76
2023/01/23 15:11:17;;;;;;;;;;;;;;;;;;5096516;28;19912;-77
2023/01/23 15:13:43;;;;;;;;;;;;;;;;;;5094767;28;20280;-76
2023/01/23 15:16:09;;;;;;;;;;;;;;;;;;5094492;28;19915;-77
2023/01/23 15:18:35;;;;;;;;;;;;;;;;;;5095302;28;19915;-76
2023/01/23 15:21:04;;;;;;;;;;;;;;;;;;5094753;28;20311;-76
2023/01/23 15:23:30;;;;;;;;;;;;;;;;;;5096503;28;19916;-76
2023/01/23 15:25:56;;;;;;;;;;;;;;;;;;5095813;28;19955;-76
2023/01/23 15:28:22;;;;;;;;;;;;;;;;;;5095533;28;20432;-76
2023/01/23 15:30:48;;;;;;;;;;;;;;;;;;5096014;28;19908;-77
2023/01/23 15:33:14;;;;;;;;;;;;;;;;;;5095064;28;20025;-76
2023/01/23 15:35:40;;;;;;;;;;;;;;;;;;5095385;28;19909;-76
2023/01/23 15:38:06;;;;;;;;;;;;;;;;;;5095387;28;19939;-75
2023/01/23 15:40:32;;;;;;;;;;;;;;;;;;5094870;28;20007;-75
2023/01/23 15:42:58;;;;;;;;;;;;;;;;;;5094962;28;19952;-77
2023/01/23 15:45:24;;;;;;;;;;;;;;;;;;5092302;28;20028;-76
2023/01/23 15:47:49;;;;;;;;;;;;;;;;;;5095276;28;19908;-76
2023/01/23 15:50:15;;;;;;;;;;;;;;;;;;5095228;28;19908;-76
2023/01/23 15:52:41;;;;;;;;;;;;;;;;;;5095555;28;20368;-75
2023/01/23 15:55:07;;;;;;;;;;;;;;;;;;5094707;28;19915;-76
2023/01/23 15:57:33;;;;;;;;;;;;;;;;;;5094896;28;20331;-75
2023/01/23 16:00:00;;;;;;;;;;;;;;;;;;5095280;28;19923;-76
2023/01/23 16:02:25;;;;;;;;;;;;;;;;;;5094259;28;19919;-75
2023/01/23 16:04:51;;;;;;;;;;;;;;;;;;5093494;28;19912;-75
2023/01/23 16:07:17;;;;;;;;;;;;;;;;;;5093819;28;19954;-76
2023/01/23 16:09:46;;;;;;;;;;;;;;;;;;5095506;28;20174;-76
2023/01/23 16:12:12;;;;;;;;;;;;;;;;;;5095490;28;19912;-76
2023/01/23 16:14:38;;;;;;;;;;;;;;;;;;5093637;28;20409;-76
2023/01/23 16:17:04;;;;;;;;;;;;;;;;;;5095510;28;19912;-76
2023/01/23 16:19:30;;;;;;;;;;;;;;;;;;5094659;28;20022;-76
2023/01/23 16:21:55;;;;;;;;;;;;;;;;;;5095346;28;19947;-76
2023/01/23 16:24:21;;;;;;;;;;;;;;;;;;5097241;28;19930;-75
2023/01/23 16:26:47;;;;;;;;;;;;;;;;;;5097126;28;19908;-76
2023/01/23 16:29:13;;;;;;;;;;;;;;;;;;5093884;28;19919;-76
2023/01/23 16:31:39;;;;;;;;;;;;;;;;;;5093272;28;20284;-76
2023/01/23 16:34:05;;;;;;;;;;;;;;;;;;5093237;28;20610;-75
2023/01/23 16:36:31;;;;;;;;;;;;;;;;;;5093126;28;19912;-75
2023/01/23 16:38:57;;;;;;;;;;;;;;;;;;5094381;28;19961;-75
2023/01/23 16:41:23;;;;;;;;;;;;;;;;;;5094260;28;19909;-75
2023/01/23 16:43:49;;;;;;;;;;;;;;;;;;5092750;28;20024;-76
2023/01/23 16:46:15;;;;;;;;;;;;;;;;;;5091135;28;19908;-75
2023/01/23 16:48:40;;;;;;;;;;;;;;;;;;5094073;28;19956;-76
2023/01/23 16:51:07;;;;;;;;;;;;;;;;;;5093086;28;20178;-76
2023/01/23 16:53:33;;;;;;;;;;;;;;;;;;5096565;28;19908;-76
2023/01/23 16:55:58;;;;;;;;;;;;;;;;;;5093831;28;19958;-76
2023/01/23 16:58:24;;;;;;;;;;;;;;;;;;5092511;28;19923;-76
2023/01/23 17:00:50;;;;;;;;;;;;;;;;;;5093847;28;20428;-76
2023/01/23 17:03:16;;;;;;;;;;;;;;;;;;5094222;28;19912;-74
2023/01/23 17:05:42;;;;;;;;;;;;;;;;;;5092986;28;20433;-76
2023/01/23 17:08:08;;;;;;;;;;;;;;;;;;5093695;28;19912;-76